Time;durP1;ratioP1;P1;durP2;ratioP2;P2;SDS_P1;SDS_P2;PMS_P1;PMS_P2;Temp;Humidity;BMP_temperature;BMP_pressure;BME280_temperature;BME280_humidity;BME280_pressure;Samples;Min_cycle;Max_cycle;Signal;HPM_P1;HPM_P2
2022/05/26 00:01:52;;;;;;;0.10;0.10;;;12.80;99.90;;;;;;5032281;28;20029;-73
2022/05/26 00:04:18;;;;;;;0.10;0.10;;;12.70;99.90;;;;;;5014746;28;20021;-73
2022/05/26 00:06:44;;;;;;;0.10;0.10;;;12.70;99.90;;;;;;5031095;28;20025;-73
2022/05/26 00:09:09;;;;;;;0.00;0.00;;;12.80;99.90;;;;;;4998061;28;20116;-73
2022/05/26 00:11:37;;;;;;;0.10;0.10;;;12.80;99.90;;;;;;5014509;28;20064;-74
2022/05/26 00:14:08;;;;;;;0.10;0.10;;;12.90;99.90;;;;;;5014784;28;20026;-73
2022/05/26 00:16:36;;;;;;;0.10;0.10;;;12.90;99.90;;;;;;5032414;28;20021;-72
2022/05/26 00:19:01;;;;;;;0.10;0.10;;;13.10;99.90;;;;;;5032512;28;20401;-73
2022/05/26 00:21:27;;;;;;;0.25;0.25;;;13.00;99.90;;;;;;5032492;28;20025;-73
2022/05/26 00:23:56;;;;;;;0.10;0.10;;;12.90;99.90;;;;;;5032354;28;20076;-73
2022/05/26 00:26:23;;;;;;;0.10;0.10;;;12.90;99.90;;;;;;5032351;28;20022;-73
2022/05/26 00:28:49;;;;;;;0.10;0.10;;;12.90;99.90;;;;;;5032231;28;20392;-73
2022/05/26 00:31:15;;;;;;;0.10;0.10;;;12.80;99.90;;;;;;5032072;28;20474;-73
2022/05/26 00:33:42;;;;;;;0.10;0.10;;;12.90;99.90;;;;;;5032205;28;20029;-73
2022/05/26 00:36:11;;;;;;;0.10;0.10;;;12.80;99.90;;;;;;5030946;28;20029;-73
2022/05/26 00:38:38;;;;;;;0.10;0.10;;;12.90;99.90;;;;;;5014098;28;20029;-73
2022/05/26 00:41:10;;;;;;;0.10;0.10;;;12.80;99.90;;;;;;5032101;28;20022;-73
2022/05/26 00:43:41;;;;;;;0.10;0.10;;;12.80;99.90;;;;;;5032034;28;20358;-73
2022/05/26 00:46:19;;;;;;;0.10;0.10;;;12.90;99.90;;;;;;5032065;28;20022;-73
2022/05/26 00:48:58;;;;;;;0.30;0.30;;;13.00;99.90;;;;;;5014425;28;20079;-73
2022/05/26 00:51:31;;;;;;;0.10;0.10;;;13.10;99.90;;;;;;5031959;28;20030;-73
2022/05/26 00:54:02;;;;;;;0.13;0.10;;;13.00;99.90;;;;;;5032122;28;20029;-73
2022/05/26 00:56:47;;;;;;;0.40;0.40;;;12.90;99.90;;;;;;5033256;28;20041;-73
2022/05/26 00:59:23;;;;;;;0.10;0.10;;;12.70;99.90;;;;;;5036011;28;20029;-73
2022/05/26 01:01:49;;;;;;;0.10;0.10;;;12.70;99.90;;;;;;5018344;28;20025;-73
2022/05/26 01:04:21;;;;;;;2.83;0.82;;;12.60;99.90;;;;;;5018060;28;20120;-73
2022/05/26 01:06:54;;;;;;;0.20;0.20;;;12.70;99.90;;;;;;5035871;28;20104;-73
2022/05/26 01:09:20;;;;;;;0.10;0.10;;;12.70;99.90;;;;;;5035798;28;20056;-73
2022/05/26 01:11:46;;;;;;;0.10;0.10;;;12.70;99.90;;;;;;5035950;28;20481;-73
2022/05/26 01:14:26;;;;;;;0.10;0.10;;;12.80;99.90;;;;;;5017992;28;20057;-73
2022/05/26 01:17:00;;;;;;;0.10;0.10;;;13.20;99.90;;;;;;5017981;28;20037;-73
2022/05/26 01:20:05;;;;;;;0.10;0.10;;;13.30;99.90;;;;;;5017769;28;20029;-73
2022/05/26 01:23:07;;;;;;;0.10;0.10;;;13.20;99.90;;;;;;5021122;28;20052;-73
2022/05/26 01:26:31;;;;;;;0.10;0.10;;;13.10;99.90;;;;;;5035540;28;20030;-73
2022/05/26 01:28:56;;;;;;;0.20;0.20;;;13.00;99.90;;;;;;4935660;29;20545;-73
2022/05/26 01:31:47;;;;;;;0.10;0.10;;;12.80;99.90;;;;;;5014811;28;20038;-73
2022/05/26 01:34:28;;;;;;;0.10;0.10;;;12.70;99.90;;;;;;5035346;28;20025;-73
2022/05/26 01:37:18;;;;;;;0.10;0.10;;;12.60;99.90;;;;;;5017490;28;20018;-73
2022/05/26 01:39:49;;;;;;;0.10;0.10;;;12.70;99.90;;;;;;5017801;28;20036;-73
2022/05/26 01:42:42;;;;;;;0.10;0.10;;;12.70;99.90;;;;;;5035107;28;20072;-73
2022/05/26 01:45:33;;;;;;;0.10;0.10;;;12.90;99.90;;;;;;5035214;28;20053;-73
2022/05/26 01:48:14;;;;;;;0.15;0.15;;;12.80;99.90;;;;;;5034947;28;20025;-73
2022/05/26 01:51:32;;;;;;;1.50;0.40;;;12.70;99.90;;;;;;5035006;28;20038;-73
2022/05/26 01:54:21;;;;;;;0.20;0.20;;;12.50;99.90;;;;;;4954569;29;20042;-73
2022/05/26 01:57:25;;;;;;;0.10;0.10;;;12.50;99.90;;;;;;5030947;28;20099;-73
2022/05/26 02:00:01;;;;;;;0.10;0.10;;;12.40;99.90;;;;;;5013691;28;20041;-73
2022/05/26 02:02:32;;;;;;;0.10;0.10;;;12.40;99.90;;;;;;5017090;28;20076;-73
2022/05/26 02:05:11;;;;;;;0.20;0.20;;;12.40;99.90;;;;;;5017163;28;20036;-73
2022/05/26 02:07:46;;;;;;;0.10;0.10;;;12.50;99.90;;;;;;5016839;28;20551;-73
2022/05/26 02:10:26;;;;;;;0.13;0.13;;;12.40;99.90;;;;;;5034743;28;20070;-73
2022/05/26 02:13:05;;;;;;;0.10;0.10;;;12.50;99.90;;;;;;5033454;28;20021;-73
2022/05/26 02:15:42;;;;;;;0.10;0.10;;;12.50;99.90;;;;;;5034574;28;20101;-73
2022/05/26 02:18:29;;;;;;;0.10;0.10;;;12.60;99.90;;;;;;5016667;28;20032;-73
2022/05/26 02:20:59;;;;;;;0.10;0.10;;;12.70;99.90;;;;;;5034357;28;20489;-74
2022/05/26 02:23:34;;;;;;;0.10;0.10;;;12.60;99.90;;;;;;5034379;28;20080;-73
2022/05/26 02:26:01;;;;;;;0.10;0.10;;;12.70;99.90;;;;;;5034429;28;20052;-73
2022/05/26 02:28:27;;;;;;;0.15;0.15;;;12.80;99.90;;;;;;5034070;28;20072;-73
2022/05/26 02:30:55;;;;;;;0.10;0.10;;;12.70;99.90;;;;;;5034856;28;20113;-73
2022/05/26 02:33:22;;;;;;;0.10;0.10;;;12.80;99.90;;;;;;5034199;28;20417;-73
2022/05/26 02:35:50;;;;;;;0.10;0.10;;;12.70;99.90;;;;;;5034190;28;20109;-73
2022/05/26 02:38:19;;;;;;;0.15;0.15;;;12.70;99.90;;;;;;5034020;28;20444;-73
2022/05/26 02:40:46;;;;;;;0.10;0.10;;;12.70;99.90;;;;;;5034034;28;20029;-73
2022/05/26 02:43:26;;;;;;;0.13;0.13;;;12.60;99.90;;;;;;5033982;28;20513;-73
2022/05/26 02:46:02;;;;;;;0.13;0.13;;;12.50;99.90;;;;;;5034065;28;20022;-73
2022/05/26 02:49:02;;;;;;;0.10;0.10;;;12.40;99.90;;;;;;5016228;28;20021;-73
2022/05/26 02:52:02;;;;;;;0.10;0.10;;;12.10;99.90;;;;;;5033866;28;20030;-73
2022/05/26 02:54:30;;;;;;;0.10;0.10;;;11.90;99.90;;;;;;5016249;28;20384;-73
2022/05/26 02:56:56;;;;;;;0.10;0.10;;;11.80;99.90;;;;;;5033585;28;20061;-73
2022/05/26 02:59:28;;;;;;;0.40;0.40;;;11.90;99.90;;;;;;5015885;28;20099;-73
2022/05/26 03:02:09;;;;;;;0.10;0.10;;;11.80;99.90;;;;;;5033663;28;20413;-73
2022/05/26 03:04:43;;;;;;;0.10;0.10;;;11.90;99.90;;;;;;5032377;28;20030;-73
2022/05/26 03:07:18;;;;;;;0.10;0.10;;;11.80;99.90;;;;;;5015576;28;20110;-73
2022/05/26 03:09:45;;;;;;;0.10;0.10;;;11.90;99.90;;;;;;5033567;28;20385;-73
2022/05/26 03:12:33;;;;;;;0.15;0.15;;;11.90;99.90;;;;;;5033543;28;20036;-73
2022/05/26 03:14:59;;;;;;;0.30;0.30;;;12.00;99.90;;;;;;5032408;28;20037;-73
2022/05/26 03:17:24;;;;;;;0.17;0.17;;;12.00;99.90;;;;;;5015444;28;20508;-73
2022/05/26 03:19:50;;;;;;;0.10;0.10;;;12.00;99.90;;;;;;5032630;28;20039;-73
2022/05/26 03:22:16;;;;;;;0.55;0.43;;;12.10;99.90;;;;;;5033186;28;20484;-73
2022/05/26 03:24:42;;;;;;;0.10;0.10;;;12.10;99.90;;;;;;5033205;28;20088;-73
2022/05/26 03:27:08;;;;;;;0.20;0.20;;;12.10;99.90;;;;;;5015358;28;20025;-73
2022/05/26 03:29:34;;;;;;;0.20;0.20;;;12.20;99.90;;;;;;5031878;28;20053;-73
2022/05/26 03:32:00;;;;;;;0.10;0.10;;;12.20;99.90;;;;;;5033097;28;20057;-73
2022/05/26 03:42:40;;;;;;;0.10;0.10;;;12.20;99.90;;;;;;5032861;28;20038;-73
2022/05/26 03:45:07;;;;;;;0.10;0.10;;;12.30;99.90;;;;;;5032882;28;20033;-73
2022/05/26 03:47:33;;;;;;;0.10;0.10;;;12.10;99.90;;;;;;5014883;28;20435;-73
2022/05/26 03:49:59;;;;;;;0.10;0.10;;;12.10;99.90;;;;;;5032758;28;20021;-73
2022/05/26 03:52:25;;;;;;;0.10;0.10;;;11.90;99.90;;;;;;5032655;28;20030;-73
2022/05/26 03:54:51;;;;;;;0.10;0.10;;;12.00;99.90;;;;;;5032652;28;20022;-73
2022/05/26 03:57:24;;;;;;;0.70;0.57;;;12.00;99.90;;;;;;5032336;28;20489;-73
2022/05/26 03:59:50;;;;;;;0.10;0.10;;;12.00;99.90;;;;;;5032530;28;20048;-72
2022/05/26 04:02:16;;;;;;;0.10;0.10;;;11.90;99.90;;;;;;5032427;28;20063;-73
2022/05/26 04:04:42;;;;;;;0.15;0.15;;;11.90;99.90;;;;;;5032480;28;20029;-73
2022/05/26 04:07:08;;;;;;;0.17;0.17;;;11.90;99.90;;;;;;5032064;28;20033;-73
2022/05/26 04:09:34;;;;;;;0.30;0.30;;;12.00;99.90;;;;;;5031305;28;20034;-74
2022/05/26 04:12:00;;;;;;;0.10;0.10;;;12.10;99.90;;;;;;5032262;28;20022;-73
2022/05/26 04:14:25;;;;;;;0.20;0.20;;;12.10;99.90;;;;;;5032350;28;20029;-73
2022/05/26 04:16:51;;;;;;;0.10;0.10;;;12.10;99.90;;;;;;5032117;28;20083;-73
2022/05/26 04:19:17;;;;;;;0.10;0.10;;;12.00;99.90;;;;;;5032170;28;20075;-73
2022/05/26 04:24:27;;;;;;;0.20;0.20;;;11.70;99.90;;;;;;5049290;28;20021;-72
2022/05/26 04:26:53;;;;;;;0.10;0.10;;;11.80;99.90;;;;;;5051846;28;20388;-73
2022/05/26 04:29:23;;;;;;;0.10;0.10;;;11.80;99.90;;;;;;5017414;28;20075;-73
2022/05/26 04:31:50;;;;;;;0.15;0.15;;;12.00;99.90;;;;;;5011515;28;20029;-73
2022/05/26 04:34:17;;;;;;;0.20;0.20;;;12.10;99.90;;;;;;5012473;28;20455;-73
2022/05/26 04:36:42;;;;;;;0.17;0.17;;;12.30;99.90;;;;;;5012198;28;20029;-73
2022/05/26 04:39:08;;;;;;;0.10;0.10;;;12.50;99.90;;;;;;5012210;28;20385;-73
2022/05/26 04:41:34;;;;;;;0.10;0.10;;;12.60;99.90;;;;;;4994631;28;20034;-73
2022/05/26 04:44:00;;;;;;;0.13;0.13;;;12.70;99.90;;;;;;5016497;28;20032;-73
2022/05/26 04:46:26;;;;;;;0.10;0.10;;;12.60;99.90;;;;;;5013880;28;20034;-74
2022/05/26 04:48:52;;;;;;;0.10;0.10;;;12.60;99.90;;;;;;5031834;28;20055;-73
2022/05/26 04:51:18;;;;;;;0.10;0.10;;;12.70;99.90;;;;;;5032214;28;20029;-74
2022/05/26 04:53:44;;;;;;;0.10;0.10;;;12.70;99.90;;;;;;5031521;28;20041;-73
2022/05/26 04:56:11;;;;;;;0.10;0.10;;;12.90;99.90;;;;;;5031658;28;20033;-73
2022/05/26 04:58:37;;;;;;;0.10;0.10;;;12.90;99.90;;;;;;5031791;28;20108;-73
2022/05/26 05:01:16;;;;;;;0.10;0.10;;;13.20;99.90;;;;;;5031660;28;20442;-73
2022/05/26 05:03:42;;;;;;;0.08;0.08;;;13.40;99.90;;;;;;5031239;28;20026;-73
2022/05/26 05:06:08;;;;;;;0.10;0.10;;;13.60;99.90;;;;;;5030886;28;20076;-73
2022/05/26 05:08:34;;;;;;;0.10;0.10;;;13.70;99.90;;;;;;5031632;28;20017;-73
2022/05/26 05:11:00;;;;;;;0.10;0.10;;;13.80;99.90;;;;;;5031672;28;20100;-73
2022/05/26 05:13:26;;;;;;;0.10;0.10;;;13.90;99.90;;;;;;5030608;28;20531;-73
2022/05/26 05:16:04;;;;;;;0.10;0.10;;;14.00;99.90;;;;;;5031724;28;20029;-75
2022/05/26 05:18:32;;;;;;;0.10;0.10;;;14.10;99.90;;;;;;5031575;28;20030;-74
2022/05/26 05:21:04;;;;;;;0.10;0.10;;;14.20;99.90;;;;;;5030372;28;20041;-73
2022/05/26 05:23:30;;;;;;;0.20;0.20;;;14.30;99.90;;;;;;5031658;28;20140;-73
2022/05/26 05:25:59;;;;;;;0.10;0.10;;;14.30;99.90;;;;;;5029406;28;20072;-73
2022/05/26 05:28:36;;;;;;;0.10;0.10;;;14.40;99.90;;;;;;5031311;28;20018;-73
2022/05/26 05:31:11;;;;;;;0.15;0.15;;;14.30;99.90;;;;;;5030362;28;20029;-73
2022/05/26 05:33:48;;;;;;;0.10;0.10;;;14.20;99.90;;;;;;5031437;28;20025;-73
2022/05/26 05:36:19;;;;;;;0.00;0.00;;;14.10;99.90;;;;;;5031605;28;20057;-73
2022/05/26 05:38:46;;;;;;;0.10;0.10;;;14.30;99.90;;;;;;5031421;28;20030;-73
2022/05/26 05:41:12;;;;;;;0.10;0.10;;;14.20;99.90;;;;;;5030127;28;20515;-73
2022/05/26 05:43:39;;;;;;;0.10;0.10;;;14.40;99.90;;;;;;5034507;28;20030;-73
2022/05/26 05:46:06;;;;;;;0.10;0.10;;;14.50;99.90;;;;;;5033786;28;20075;-73
2022/05/26 05:48:32;;;;;;;0.30;0.30;;;14.50;99.90;;;;;;5034946;28;20041;-73
2022/05/26 05:50:58;;;;;;;0.28;0.28;;;14.50;99.90;;;;;;5034932;28;20078;-73
2022/05/26 05:53:24;;;;;;;0.30;0.30;;;14.60;99.90;;;;;;5034865;28;20029;-73
2022/05/26 05:58:17;;;;;;;0.10;0.10;;;14.70;99.90;;;;;;5032700;28;20054;-72
2022/05/26 06:00:43;;;;;;;0.10;0.10;;;14.70;99.90;;;;;;5035940;28;20032;-72
2022/05/26 06:03:09;;;;;;;0.10;0.10;;;14.70;99.90;;;;;;5025337;28;20026;-71
2022/05/26 06:05:36;;;;;;;0.08;0.08;;;14.70;99.90;;;;;;5046084;28;20611;-72
2022/05/26 06:08:02;;;;;;;0.10;0.10;;;14.80;99.90;;;;;;5016494;28;20477;-72
2022/05/26 06:10:30;;;;;;;0.15;0.15;;;15.00;99.90;;;;;;5018144;28;20028;-71
2022/05/26 06:12:55;;;;;;;0.20;0.20;;;15.30;99.90;;;;;;5034425;28;20033;-73
2022/05/26 06:15:21;;;;;;;0.15;0.15;;;15.30;99.90;;;;;;5034222;28;20029;-72
2022/05/26 06:17:47;;;;;;;0.13;0.13;;;15.30;99.90;;;;;;5034090;28;20029;-72
2022/05/26 06:20:14;;;;;;;0.20;0.20;;;15.30;99.90;;;;;;5034327;28;20396;-72
2022/05/26 06:22:44;;;;;;;0.20;0.20;;;15.30;99.90;;;;;;5034248;28;20025;-75
2022/05/26 06:25:12;;;;;;;0.10;0.10;;;15.30;99.90;;;;;;5034267;28;20028;-73
2022/05/26 06:30:23;;;;;;;0.32;0.32;;;15.40;99.90;;;;;;5034100;28;20025;-73
2022/05/26 06:38:22;;;;;;;0.10;0.10;;;15.50;99.90;;;;;;5033834;28;20022;-72
2022/05/26 06:40:48;;;;;;;0.10;0.10;;;15.60;99.90;;;;;;5015841;28;20116;-72
2022/05/26 06:43:15;;;;;;;0.47;0.47;;;15.70;99.90;;;;;;5016014;28;20030;-73
2022/05/26 06:45:42;;;;;;;0.20;0.20;;;15.60;99.90;;;;;;5033865;28;20021;-72
2022/05/26 06:48:08;;;;;;;0.45;0.40;;;15.70;99.90;;;;;;5033511;28;20025;-72
2022/05/26 06:50:34;;;;;;;0.20;0.20;;;15.80;99.90;;;;;;5033839;28;20037;-72
2022/05/26 06:53:01;;;;;;;1.00;0.82;;;15.90;99.90;;;;;;5033393;28;20064;-73
2022/05/26 06:55:27;;;;;;;0.22;0.22;;;15.90;99.90;;;;;;5033011;28;20109;-72
2022/05/26 06:57:53;;;;;;;0.28;0.28;;;16.00;99.90;;;;;;5033299;28;20515;-72
2022/05/26 07:00:19;;;;;;;0.10;0.10;;;16.00;99.90;;;;;;5033486;28;20021;-73
2022/05/26 07:02:45;;;;;;;0.10;0.10;;;16.20;99.90;;;;;;5033467;28;20075;-72
2022/05/26 07:05:12;;;;;;;1.10;0.75;;;16.60;99.90;;;;;;5015798;28;20492;-72
2022/05/26 07:07:39;;;;;;;0.10;0.10;;;16.90;99.90;;;;;;5015389;28;20029;-72
2022/05/26 07:10:06;;;;;;;0.10;0.10;;;17.10;99.90;;;;;;5015538;28;20429;-73
2022/05/26 07:12:32;;;;;;;0.10;0.10;;;17.20;99.90;;;;;;5033356;28;20063;-72
2022/05/26 07:14:59;;;;;;;0.10;0.10;;;17.10;99.90;;;;;;5034090;28;20060;-72
2022/05/26 07:17:25;;;;;;;7.38;0.88;;;17.30;99.90;;;;;;5032885;28;20029;-73
2022/05/26 07:19:51;;;;;;;0.00;0.00;;;17.30;99.90;;;;;;5033237;28;20021;-73
2022/05/26 07:22:17;;;;;;;0.05;0.05;;;17.30;99.90;;;;;;5033035;28;20029;-74
2022/05/26 07:24:44;;;;;;;0.10;0.10;;;17.20;99.90;;;;;;5015388;28;20048;-73
2022/05/26 07:27:09;;;;;;;0.10;0.10;;;17.30;99.90;;;;;;5032708;28;20025;-72
2022/05/26 07:29:35;;;;;;;0.00;0.00;;;17.50;99.90;;;;;;5033068;28;20021;-73
2022/05/26 07:32:01;;;;;;;0.00;0.00;;;17.70;99.90;;;;;;5032890;28;20432;-72
2022/05/26 07:34:27;;;;;;;0.10;0.10;;;17.80;99.90;;;;;;5015260;28;20029;-72
2022/05/26 07:42:25;;;;;;;0.10;0.10;;;18.10;99.90;;;;;;5015134;28;20025;-72
2022/05/26 07:44:54;;;;;;;0.00;0.00;;;18.30;99.90;;;;;;5033218;28;20108;-72
2022/05/26 07:47:20;;;;;;;0.10;0.10;;;18.40;99.90;;;;;;5032590;28;20100;-73
2022/05/26 07:49:47;;;;;;;0.00;0.00;;;18.60;99.50;;;;;;5032790;28;20025;-73
2022/05/26 07:52:15;;;;;;;0.05;0.05;;;18.70;98.30;;;;;;5014904;28;20026;-73
2022/05/26 07:54:41;;;;;;;0.38;0.10;;;18.80;98.10;;;;;;5032644;28;20057;-73
2022/05/26 07:57:16;;;;;;;0.38;0.20;;;19.00;95.20;;;;;;5032268;28;20068;-72
2022/05/26 07:59:42;;;;;;;0.00;0.00;;;19.10;94.70;;;;;;5032642;28;20028;-72
2022/05/26 08:02:08;;;;;;;0.10;0.10;;;19.20;94.30;;;;;;5032317;28;20432;-72
2022/05/26 08:04:34;;;;;;;0.10;0.10;;;19.00;93.20;;;;;;5032285;28;20037;-72
2022/05/26 08:06:59;;;;;;;0.00;0.00;;;19.00;93.30;;;;;;5032135;28;20021;-72
2022/05/26 08:09:25;;;;;;;0.00;0.00;;;18.80;91.40;;;;;;5014675;28;20018;-73
2022/05/26 08:11:51;;;;;;;0.10;0.10;;;19.10;91.80;;;;;;5032338;28;20029;-73
2022/05/26 08:14:17;;;;;;;0.00;0.00;;;19.20;91.40;;;;;;5032268;28;20032;-73
2022/05/26 08:16:43;;;;;;;0.00;0.00;;;19.60;91.20;;;;;;5032068;28;20032;-73
2022/05/26 08:19:09;;;;;;;0.08;0.08;;;19.50;91.50;;;;;;5032172;28;20029;-73
2022/05/26 08:21:35;;;;;;;0.20;0.20;;;19.20;91.40;;;;;;5031992;28;20083;-73
2022/05/26 08:24:01;;;;;;;1.75;1.05;;;18.80;90.60;;;;;;5032064;28;20017;-73
2022/05/26 08:26:28;;;;;;;0.10;0.10;;;18.80;90.90;;;;;;5014325;28;20030;-74
2022/05/26 08:28:55;;;;;;;0.10;0.10;;;18.90;91.20;;;;;;5032029;28;20099;-73
2022/05/26 08:31:22;;;;;;;0.00;0.00;;;19.30;90.40;;;;;;5031980;28;20033;-73
2022/05/26 08:33:48;;;;;;;0.00;0.00;;;19.30;88.50;;;;;;5031911;28;20025;-73
2022/05/26 08:36:20;;;;;;;0.00;0.00;;;19.00;87.90;;;;;;5031749;28;20029;-73
2022/05/26 08:38:46;;;;;;;0.00;0.00;;;19.00;86.40;;;;;;5031842;28;20061;-73
2022/05/26 08:41:21;;;;;;;0.08;0.08;;;19.00;86.30;;;;;;5013925;28;20504;-73
2022/05/26 08:43:58;;;;;;;0.05;0.05;;;19.30;86.10;;;;;;5014376;28;20029;-73
2022/05/26 08:46:31;;;;;;;0.10;0.10;;;19.50;82.90;;;;;;5031590;28;20029;-73
2022/05/26 08:49:09;;;;;;;0.10;0.10;;;19.50;83.80;;;;;;5031762;28;20121;-73
2022/05/26 08:51:47;;;;;;;0.10;0.10;;;18.80;84.90;;;;;;5031814;28;20037;-73
2022/05/26 08:54:51;;;;;;;0.05;0.05;;;18.70;87.00;;;;;;5031929;28;20028;-73
2022/05/26 08:57:50;;;;;;;0.10;0.10;;;18.70;88.00;;;;;;5000725;28;20045;-73
2022/05/26 09:00:21;;;;;;;0.10;0.10;;;18.70;86.60;;;;;;5031528;28;20370;-73
2022/05/26 09:02:51;;;;;;;0.10;0.10;;;18.70;86.80;;;;;;5031646;28;20018;-72
2022/05/26 09:05:19;;;;;;;0.10;0.10;;;18.50;86.70;;;;;;5032024;28;20049;-72
2022/05/26 09:13:37;;;;;;;0.10;0.10;;;19.70;85.10;;;;;;5013935;28;20473;-72
2022/05/26 09:16:06;;;;;;;0.10;0.10;;;20.00;81.20;;;;;;5031639;28;20033;-73
2022/05/26 09:18:32;;;;;;;1.80;0.50;;;20.30;78.90;;;;;;5034496;28;20034;-72
2022/05/26 09:21:11;;;;;;;0.10;0.10;;;20.00;78.80;;;;;;5035426;28;20147;-72
2022/05/26 09:23:39;;;;;;;0.20;0.20;;;20.30;79.90;;;;;;5035461;28;20025;-73
2022/05/26 09:26:08;;;;;;;0.10;0.10;;;20.80;77.30;;;;;;5035375;28;20021;-73
2022/05/26 09:28:40;;;;;;;0.20;0.20;;;21.00;74.40;;;;;;5035164;28;20113;-73
2022/05/26 09:31:31;;;;;;;3.72;2.72;;;21.40;72.60;;;;;;5035320;28;20036;-73
2022/05/26 09:34:03;;;;;;;0.22;0.22;;;22.10;70.60;;;;;;5035120;28;20078;-73
2022/05/26 09:36:32;;;;;;;0.13;0.13;;;22.40;68.80;;;;;;5034975;28;20030;-73
2022/05/26 09:38:58;;;;;;;0.30;0.30;;;22.20;69.20;;;;;;5035117;28;20030;-73
2022/05/26 09:41:24;;;;;;;1.27;0.17;;;21.70;69.40;;;;;;5035190;28;20033;-73
2022/05/26 09:43:55;;;;;;;0.00;0.00;;;21.50;71.50;;;;;;5035058;28;20017;-73
2022/05/26 09:46:25;;;;;;;0.00;0.00;;;21.10;73.10;;;;;;5017227;28;20501;-74
2022/05/26 09:49:12;;;;;;;0.47;0.38;;;20.80;73.80;;;;;;5017042;28;20052;-74
2022/05/26 09:51:44;;;;;;;0.05;0.05;;;20.30;73.60;;;;;;5034909;28;20100;-73
2022/05/26 09:54:39;;;;;;;0.00;0.00;;;20.20;74.90;;;;;;5034870;28;20025;-73
2022/05/26 09:57:19;;;;;;;0.38;0.38;;;21.00;71.90;;;;;;5017462;28;20053;-73
2022/05/26 09:59:45;;;;;;;0.05;0.05;;;20.60;71.80;;;;;;5017171;28;20030;-75
2022/05/26 10:02:18;;;;;;;0.05;0.05;;;20.50;73.40;;;;;;5034812;28;20036;-74
2022/05/26 10:05:03;;;;;;;0.68;0.68;;;20.50;75.10;;;;;;5035122;28;20029;-74
2022/05/26 10:07:44;;;;;;;0.22;0.22;;;20.90;71.30;;;;;;5000353;28;20025;-73
2022/05/26 10:10:26;;;;;;;0.10;0.10;;;20.80;70.70;;;;;;5034616;28;20018;-74
2022/05/26 10:13:04;;;;;;;0.00;0.00;;;20.40;72.60;;;;;;5034653;28;20037;-74
2022/05/26 10:15:39;;;;;;;0.22;0.22;;;20.50;73.00;;;;;;5034536;28;20033;-74
2022/05/26 10:18:19;;;;;;;0.88;0.40;;;20.40;74.40;;;;;;5034196;28;20068;-73
2022/05/26 10:21:07;;;;;;;0.10;0.10;;;20.40;74.40;;;;;;5034483;28;20054;-73
2022/05/26 10:23:57;;;;;;;0.65;0.65;;;20.00;74.70;;;;;;5034219;28;20079;-73
2022/05/26 10:26:30;;;;;;;0.30;0.22;;;19.80;76.00;;;;;;5034379;28;20056;-73
2022/05/26 10:29:04;;;;;;;0.17;0.17;;;19.80;76.10;;;;;;5034349;28;20497;-73
2022/05/26 10:31:57;;;;;;;0.00;0.00;;;20.00;76.00;;;;;;5034226;28;20435;-73
2022/05/26 10:34:41;;;;;;;0.00;0.00;;;20.50;74.70;;;;;;5034245;28;20028;-74
2022/05/26 10:37:36;;;;;;;0.00;0.00;;;21.10;74.30;;;;;;5033840;28;20029;-73
2022/05/26 10:40:28;;;;;;;0.40;0.40;;;21.10;72.70;;;;;;5033892;28;20052;-73
2022/05/26 10:42:56;;;;;;;0.10;0.10;;;20.90;72.40;;;;;;5034358;28;20108;-74
2022/05/26 10:45:30;;;;;;;0.10;0.10;;;20.80;72.50;;;;;;5033976;28;20022;-73
2022/05/26 10:48:14;;;;;;;0.30;0.30;;;21.10;73.50;;;;;;5033685;28;20025;-73
2022/05/26 10:50:52;;;;;;;0.10;0.10;;;22.00;70.10;;;;;;5034004;28;20026;-74
2022/05/26 10:53:34;;;;;;;0.45;0.45;;;22.20;68.20;;;;;;5033842;28;20025;-73
2022/05/26 10:56:16;;;;;;;0.05;0.05;;;21.50;69.80;;;;;;5033694;28;20029;-73
2022/05/26 10:58:47;;;;;;;0.10;0.10;;;21.20;70.80;;;;;;5033915;28;20034;-73
2022/05/26 11:01:25;;;;;;;0.00;0.00;;;20.50;74.40;;;;;;5015830;28;20397;-73
2022/05/26 11:03:58;;;;;;;0.10;0.10;;;20.50;78.00;;;;;;5033654;28;20409;-73
2022/05/26 11:06:31;;;;;;;0.00;0.00;;;20.70;75.80;;;;;;5015587;28;20477;-73
2022/05/26 11:09:07;;;;;;;0.10;0.10;;;21.30;75.40;;;;;;5033312;28;20386;-73
2022/05/26 11:11:41;;;;;;;0.30;0.10;;;22.10;72.70;;;;;;5015820;28;20464;-73
2022/05/26 11:17:32;;;;;;;0.00;0.00;;;22.40;67.70;;;;;;5032999;28;20033;-73
2022/05/26 11:20:07;;;;;;;0.08;0.08;;;22.10;70.50;;;;;;5033601;28;20025;-74
2022/05/26 11:22:33;;;;;;;0.00;0.00;;;22.10;69.20;;;;;;5033213;28;20403;-73
2022/05/26 11:25:00;;;;;;;0.30;0.30;;;22.10;68.00;;;;;;5033160;28;20033;-73
2022/05/26 11:27:37;;;;;;;0.00;0.00;;;22.00;68.90;;;;;;5032904;28;20018;-77
2022/05/26 11:36:07;;;;;;;0.15;0.10;;;21.80;71.00;;;;;;5032324;28;20172;-73
2022/05/26 11:38:26;;;;;;;0.00;0.00;;;23.20;65.90;;;;;;5031696;28;20493;-73
2022/05/26 11:40:56;;;;;;;0.30;0.30;;;24.00;66.70;;;;;;5032340;28;20030;-74
2022/05/26 11:43:29;;;;;;;0.00;0.00;;;24.30;62.60;;;;;;5034598;28;20171;-73
2022/05/26 11:45:58;;;;;;;0.30;0.30;;;24.30;61.40;;;;;;5041135;28;20024;-76
2022/05/26 11:48:32;;;;;;;0.00;0.00;;;23.90;63.40;;;;;;5040438;28;20099;-73
2022/05/26 11:50:58;;;;;;;0.00;0.00;;;23.60;62.20;;;;;;5031188;28;20369;-74
2022/05/26 11:53:35;;;;;;;0.10;0.10;;;23.40;64.10;;;;;;5044359;28;20018;-73
2022/05/26 11:56:23;;;;;;;0.20;0.20;;;23.60;62.10;;;;;;5032542;28;20049;-74
2022/05/26 11:59:18;;;;;;;0.10;0.10;;;22.70;64.00;;;;;;5040818;22;20443;-72
2022/05/26 12:02:07;;;;;;;0.00;0.00;;;22.40;64.50;;;;;;5016017;28;20385;-73
2022/05/26 12:04:39;;;;;;;0.00;0.00;;;22.10;66.90;;;;;;5048840;28;20017;-73
2022/05/26 12:07:26;;;;;;;0.00;0.00;;;22.10;65.60;;;;;;5050650;28;20151;-73
2022/05/26 12:09:57;;;;;;;0.10;0.10;;;22.10;67.30;;;;;;5051963;28;20024;-73
2022/05/26 12:12:23;;;;;;;0.38;0.28;;;22.20;66.90;;;;;;5052425;28;20021;-73
2022/05/26 12:14:55;;;;;;;0.10;0.10;;;22.20;65.20;;;;;;5052315;28;20036;-72
2022/05/26 12:17:42;;;;;;;1.20;0.73;;;22.40;66.20;;;;;;5051561;28;20389;-73
2022/05/26 12:20:10;;;;;;;0.10;0.10;;;22.40;66.30;;;;;;5052351;28;20032;-72
2022/05/26 12:22:47;;;;;;;0.45;0.20;;;22.20;66.00;;;;;;5052184;28;20028;-73
2022/05/26 12:25:28;;;;;;;0.13;0.13;;;22.10;66.30;;;;;;5052274;28;20025;-73
2022/05/26 12:28:03;;;;;;;;;;;22.00;66.40;;;;;;5052401;28;20021;-74
2022/05/26 12:30:46;;;;;;;0.17;0.17;;;22.20;67.40;;;;;;5018065;28;19904;-73
2022/05/26 12:33:20;;;;;;;0.00;0.00;;;22.00;67.00;;;;;;5034475;28;20051;-73
2022/05/26 12:36:05;;;;;;;0.57;0.45;;;22.30;65.30;;;;;;5052139;28;20033;-74
2022/05/26 12:39:01;;;;;;;0.10;0.10;;;22.30;64.90;;;;;;5051671;28;20031;-74
2022/05/26 12:41:49;;;;;;;0.00;0.00;;;22.70;65.00;;;;;;5017526;28;20064;-73
2022/05/26 12:44:39;;;;;;;0.00;0.00;;;22.70;65.60;;;;;;5051944;28;20100;-73
2022/05/26 12:47:23;;;;;;;0.57;0.22;;;22.40;66.60;;;;;;5051898;28;20067;-73
2022/05/26 12:50:04;;;;;;;0.10;0.10;;;22.10;67.20;;;;;;5052565;28;20025;-74
2022/05/26 12:52:35;;;;;;;0.17;0.17;;;22.10;67.50;;;;;;5053552;28;20028;-74
2022/05/26 12:55:17;;;;;;;;;;;22.00;66.80;;;;;;5038687;28;20032;-74
2022/05/26 12:57:50;;;;;;;0.03;0.03;;;22.20;69.10;;;;;;5055618;28;19924;-73
2022/05/26 13:00:27;;;;;;;0.10;0.10;;;22.40;66.80;;;;;;5056006;28;20040;-73
2022/05/26 13:03:04;;;;;;;0.00;0.00;;;22.40;67.30;;;;;;5056527;28;20044;-74
2022/05/26 13:05:34;;;;;;;0.13;0.13;;;22.30;66.90;;;;;;5056286;28;20020;-73
2022/05/26 13:08:02;;;;;;;0.00;0.00;;;22.20;67.00;;;;;;5055701;28;20013;-73
2022/05/26 13:10:33;;;;;;;0.00;0.00;;;22.50;66.40;;;;;;5056035;28;20434;-74
2022/05/26 13:13:00;;;;;;;0.17;0.17;;;22.40;65.00;;;;;;5037917;28;20019;-74
2022/05/26 13:15:27;;;;;;;0.10;0.10;;;22.40;64.30;;;;;;5055649;28;20021;-73
2022/05/26 13:17:53;;;;;;;2.38;0.30;;;22.50;64.70;;;;;;5055179;28;20028;-73
2022/05/26 13:20:31;;;;;;;0.00;0.00;;;22.40;64.80;;;;;;5055726;28;20021;-73
2022/05/26 13:22:58;;;;;;;0.20;0.13;;;22.70;65.60;;;;;;5037919;28;20040;-74
2022/05/26 13:25:28;;;;;;;0.00;0.00;;;22.70;65.60;;;;;;5056045;28;20032;-72
2022/05/26 13:28:04;;;;;;;0.32;0.17;;;22.70;64.50;;;;;;5055489;28;20100;-73
2022/05/26 13:33:22;;;;;;;0.00;0.00;;;22.90;64.20;;;;;;5055372;28;20021;-72
2022/05/26 13:35:52;;;;;;;0.00;0.00;;;22.80;63.30;;;;;;5055323;28;20021;-73
2022/05/26 13:38:22;;;;;;;0.10;0.10;;;22.60;64.50;;;;;;5054865;28;20036;-73
2022/05/26 13:40:48;;;;;;;0.00;0.00;;;22.60;65.20;;;;;;5055159;28;20026;-72
2022/05/26 13:43:15;;;;;;;1.67;0.17;;;22.70;63.60;;;;;;5054997;28;20022;-72
2022/05/26 13:45:43;;;;;;;0.10;0.10;;;22.50;64.40;;;;;;5055143;28;20021;-72
2022/05/26 13:48:32;;;;;;;0.10;0.10;;;22.30;64.60;;;;;;5054744;28;20518;-72
2022/05/26 13:51:15;;;;;;;0.00;0.00;;;22.20;65.40;;;;;;5054868;28;20025;-73
2022/05/26 13:53:50;;;;;;;0.10;0.10;;;22.00;64.90;;;;;;5055072;28;20025;-73
2022/05/26 13:56:32;;;;;;;0.10;0.10;;;21.70;67.30;;;;;;5054937;28;20392;-73
2022/05/26 13:59:04;;;;;;;0.05;0.05;;;21.80;68.00;;;;;;5036730;28;20052;-73
2022/05/26 14:01:30;;;;;;;0.10;0.10;;;22.20;66.40;;;;;;5055007;28;20028;-73